Latest Weather Observations for Ballina

IDN60801

Issued at 7:35 am EST Wednesday 17 September 2014 (issued every 30 minutes, with the page automatically refreshed every 10 minutes)

About weather observations | Map of weather stations | Latest weather observations for NSW | Other Formats
Station Details ID: 058198 Name: BALLINA AIRPORT AWS Lat: -28.84 Lon: 153.56 Height: 1.3 m
Data from the previous 72 hours. | See also: Recent months at Ballina
Date/Time
EST
Temp
°C
App
Temp
°C
Dew
Point
Rel
Hum
%
Delta-T
°C
Wind Press
QNH
hPa
Press
MSL
hPa
Rain
since 9 am
mm
Dir
 
Spd
km/h
Gust
km/h
Spd
kts
Gust
kts
17/07:30am 19.3 15.8 8.6 50 5.6 W 17 24 9 13 1014.6 1014.6 0.0
17/07:00am 15.9 16.7 12.5 80 1.9 WNW 0 6 0 3 1014.4 1014.4 0.0
17/06:30am 12.1 12.3 10.5 90 0.8 CALM 0 0 0 0 1013.9 1013.9 0.0
17/06:00am 11.5 11.6 10.1 91 0.7 SW 0 0 0 0 1013.4 1013.4 0.0
17/05:30am 11.7 11.8 10.1 90 0.8 CALM 0 0 0 0 1013.0 1013.0 0.0
17/05:00am 12.1 10.7 8.8 80 1.6 WSW 6 7 3 4 1012.7 1012.7 0.0
17/04:30am 15.1 13.5 8.6 65 3.3 - 7 - 4 - 1012.4 1012.4 0.0
17/04:00am 17.6 14.0 9.8 60 4.1 NW 19 24 10 13 1011.9 1011.9 0.0
17/03:48am 16.9 14.4 11.0 68 3.2 NW 15 19 8 10 1011.9 1011.9 0.0
17/03:30am 11.9 10.3 10.3 90 0.8 NW 9 11 5 6 1011.8 1011.8 0.0
17/03:00am 13.2 13.3 11.6 90 0.9 N 2 6 1 3 1011.6 1011.6 0.0
17/02:30am 14.3 13.3 12.2 87 1.1 N 9 9 5 5 1011.6 1011.6 0.0
17/02:00am 15.7 15.0 13.2 85 1.4 NNW 9 11 5 6 1011.9 1011.9 0.0
17/01:30am 16.1 15.2 13.8 86 1.3 NNW 11 13 6 7 1011.9 1011.9 0.0
17/01:00am 14.7 14.2 12.6 87 1.1 N 7 9 4 5 1011.8 1011.8 0.0
17/12:30am 16.4 16.4 13.5 83 1.6 N 6 7 3 4 1011.9 1011.9 0.0
17/12:00am 17.2 16.7 13.9 81 1.9 NNW 9 13 5 7 1012.0 1012.0 0.0
 
Date/Time
EST
Temp
°C
App
Temp
°C
Dew
Point
Rel
Hum
%
Delta-T
°C
Wind Press
QNH
hPa
Press
MSL
hPa
Rain
since 9 am
mm
Dir
 
Spd
km/h
Gust
km/h
Spd
kts
Gust
kts
16/11:30pm 17.9 17.1 14.0 78 2.2 N 11 15 6 8 1012.1 1012.1 0.0
16/11:00pm 18.1 17.7 14.0 77 2.3 N 9 11 5 6 1011.9 1011.9 0.0
16/10:30pm 19.0 18.2 14.1 73 2.8 N 11 15 6 8 1011.9 1011.9 0.0
16/10:00pm 19.4 17.6 14.4 73 2.9 N 17 22 9 12 1011.5 1011.5 0.0
16/09:30pm 19.4 17.3 14.6 74 2.8 N 19 24 10 13 1011.6 1011.6 0.0
16/09:00pm 19.5 17.3 14.5 73 2.9 N 19 24 10 13 1011.4 1011.4 0.0
16/08:30pm 19.6 18.6 14.6 73 2.9 N 13 19 7 10 1011.2 1011.2 0.0
16/08:00pm 19.6 18.0 15.0 75 2.7 N 17 22 9 12 1011.1 1011.1 0.0
16/07:30pm 19.9 18.9 15.5 76 2.6 N 15 20 8 11 1010.8 1010.8 0.0
16/07:00pm 20.4 18.7 15.8 75 2.7 N 19 26 10 14 1010.6 1010.6 0.0
16/06:30pm 21.1 19.1 15.4 70 3.4 N 20 30 11 16 1010.1 1010.1 0.0
16/06:00pm 21.4 19.4 15.5 69 3.5 N 20 30 11 16 1009.8 1009.8 0.0
16/05:30pm 21.7 18.9 15.3 67 3.8 N 24 35 13 19 1009.6 1009.6 0.0
16/05:00pm 22.4 18.8 15.3 64 4.2 N 28 41 15 22 1009.3 1009.3 0.0
16/04:30pm 23.4 19.9 15.5 61 4.7 N 28 43 15 23 1009.3 1009.3 0.0
16/04:00pm 23.9 21.1 15.4 59 5.1 N 24 35 13 19 1009.3 1009.3 0.0
16/03:30pm 24.2 20.5 14.9 56 5.5 N 28 43 15 23 1009.3 1009.3 0.0
16/03:00pm 24.8 21.5 14.9 54 5.9 N 26 43 14 23 1009.4 1009.4 0.0
16/02:30pm 25.5 23.0 15.2 53 6.2 N 22 33 12 18 1009.7 1009.7 0.0
16/02:00pm 25.6 22.6 14.7 51 6.5 NNE 24 35 13 19 1009.9 1009.9 0.0
16/01:30pm 25.7 22.2 14.5 50 6.7 N 26 35 14 19 1010.5 1010.5 0.0
16/01:00pm 26.1 24.1 15.5 52 6.4 N 20 28 11 15 1011.2 1011.2 0.0
16/12:30pm 25.9 24.9 16.7 57 5.7 NNE 17 24 9 13 1012.0 1012.0 0.0
16/12:00pm 25.0 22.9 14.8 53 6.1 N 19 24 10 13 1012.5 1012.5 0.0
16/11:30am 24.6 23.8 15.2 55 5.6 N 13 19 7 10 1013.4 1013.4 0.0
16/11:00am 24.1 23.0 14.2 54 5.8 N 13 19 7 10 1014.0 1014.0 0.0
16/10:30am 23.5 22.2 13.7 54 5.7 N 13 20 7 11 1014.2 1014.2 0.0
16/10:00am 23.0 23.0 15.3 62 4.6 N 9 15 5 8 1014.8 1014.8 0.0
16/09:30am 21.9 22.2 15.0 65 4.1 NW 7 13 4 7 1015.5 1015.5 0.0
16/09:00am 21.0 21.0 15.1 69 3.5 N 9 13 5 7 1015.7 1015.7 -
16/08:30am 19.5 19.9 15.4 77 2.4 N 7 11 4 6 1015.8 1015.8 -
16/08:00am 17.6 19.0 16.5 93 0.7 N 4 7 2 4 1016.1 1016.1 -
16/07:53am 17.2 19.1 16.6 96 0.4 N 2 6 1 3 1016.1 1016.1 -
16/07:47am 16.7 18.5 16.4 98 0.2 N 2 6 1 3 1016.1 1016.1 -
16/07:30am 16.2 17.1 16.0 99 0.1 N 6 9 3 5 1016.0 1016.0 -
16/07:00am 15.6 16.2 15.4 99 0.1 NW 6 7 3 4 1016.0 1016.0 -
16/06:30am 15.3 15.8 15.1 99 0.1 NNW 6 7 3 4 1016.0 1016.0 -
16/06:00am 15.0 15.4 14.7 98 0.2 NW 6 7 3 4 1016.0 1016.0 -
16/05:53am 14.9 15.1 14.6 98 0.2 NW 7 9 4 5 1015.9 1015.9 -
16/05:30am 14.8 14.9 14.5 98 0.2 NW 7 9 4 5 1015.8 1015.8 -
16/05:00am 15.1 15.4 14.9 99 0.1 NW 7 11 4 6 1015.5 1015.5 -
16/04:30am 15.6 17.4 15.4 99 0.1 CALM 0 6 0 3 1015.5 1015.5 -
16/04:17am 15.7 16.8 15.5 99 0.1 W 4 9 2 5 1015.4 1015.4 -
16/04:00am 15.7 16.2 15.5 99 0.1 NW 7 9 4 5 1015.3 1015.3 -
16/03:30am 15.7 16.2 15.5 99 0.1 NW 7 11 4 6 1015.3 1015.3 -
16/03:00am 15.3 15.6 15.1 99 0.1 WNW 7 9 4 5 1015.3 1015.3 0.0
16/02:30am 14.4 15.3 14.1 98 0.2 WNW 2 6 1 3 1015.3 1015.3 -
16/02:05am 13.0 13.4 12.4 96 0.3 NW 2 7 1 4 1015.4 1015.4 -
16/02:00am 13.3 13.8 12.7 96 0.3 NW 2 7 1 4 1015.4 1015.4 -
16/01:59am 13.2 13.6 12.6 96 0.3 NW 2 7 1 4 1015.4 1015.4 -
16/01:57am 13.2 13.6 12.6 96 0.3 NW 2 7 1 4 1015.4 1015.4 -
16/01:30am 14.7 14.7 14.2 97 0.3 WNW 7 7 4 4 1015.6 1015.6 -
16/01:26am 14.3 14.1 13.7 96 0.3 W 7 7 4 4 1015.6 1015.6 -
16/01:00am 14.4 14.5 13.8 96 0.3 N 6 7 3 4 1015.8 1015.8 -
16/12:30am 14.9 15.8 14.1 95 0.5 N 2 7 1 4 1016.1 1016.1 -
16/12:00am 15.4 15.2 14.6 95 0.5 N 9 11 5 6 1016.2 1016.2 -
 
Date/Time
EST
Temp
°C
App
Temp
°C
Dew
Point
Rel
Hum
%
Delta-T
°C
Wind Press
QNH
hPa
Press
MSL
hPa
Rain
since 9 am
mm
Dir
 
Spd
km/h
Gust
km/h
Spd
kts
Gust
kts
15/11:30pm 15.2 14.9 14.4 95 0.5 NNW 9 11 5 6 1016.4 1016.4 -
15/11:00pm 13.5 13.0 12.1 91 0.8 N 6 9 3 5 1016.3 1016.3 -
15/10:30pm 14.3 14.1 13.0 92 0.7 WNW 6 7 3 4 1016.5 1016.5 -
15/10:00pm 14.2 14.0 13.1 93 0.6 N 6 7 3 4 1016.3 1016.3 -
15/09:30pm 14.0 14.8 12.4 90 0.9 CALM 0 0 0 0 1016.2 1016.2 -
15/09:00pm 15.0 15.9 13.0 88 1.1 CALM 0 0 0 0 1016.3 1016.3 0.0
15/08:30pm 15.6 16.6 13.1 85 1.4 CALM 0 0 0 0 1015.9 1015.9 -
15/08:00pm 15.9 15.5 13.0 83 1.6 S 7 9 4 5 1015.8 1015.8 -
15/07:30pm 17.1 16.7 13.0 77 2.3 N 7 9 4 5 1015.4 1015.4 -
15/07:00pm 17.6 17.2 13.1 75 2.5 N 7 9 4 5 1015.2 1015.2 -
15/06:30pm 17.8 17.7 13.9 78 2.2 N 7 11 4 6 1014.9 1014.9 -
15/06:00pm 18.7 18.4 15.4 81 1.9 N 11 15 6 8 1014.6 1014.6 -
15/05:30pm 19.4 17.8 14.9 75 2.6 N 17 20 9 11 1014.4 1014.4 -
15/05:00pm 21.0 22.2 16.0 73 3.0 NNW 4 7 2 4 1014.4 1014.4 -
15/04:30pm 20.8 19.0 16.0 74 2.9 N 20 26 11 14 1014.3 1014.3 -
15/04:00pm 22.2 20.2 15.5 66 4.0 NNE 20 24 11 13 1014.0 1014.0 -
15/03:30pm 20.7 19.8 14.8 69 3.5 NW 13 20 7 11 1015.0 1015.0 -
15/03:00pm 23.2 22.2 14.7 58 5.0 NE 13 20 7 11 1013.9 1013.9 -
15/02:30pm 24.9 22.4 14.1 51 6.4 NE 20 26 11 14 1013.6 1013.6 -
15/02:00pm 24.4 21.5 13.9 52 6.2 NE 22 28 12 15 1014.0 1014.0 -
15/01:30pm 22.5 19.7 14.4 60 4.8 NE 22 28 12 15 1014.5 1014.5 -
15/01:00pm 24.5 22.6 15.1 55 5.6 ENE 19 22 10 12 1014.9 1014.9 -
15/12:30pm 25.9 23.7 15.0 51 6.6 ENE 20 26 11 14 1015.3 1015.3 -
15/12:00pm 26.3 25.0 12.4 42 8.0 W 11 19 6 10 1015.9 1015.9 -
15/11:30am 25.7 24.1 12.9 45 7.4 NW 13 22 7 12 1016.4 1016.4 0.0
15/11:00am 24.6 21.5 12.2 46 7.1 NW 20 30 11 16 1017.0 1017.0 0.0
15/10:30am 24.0 21.5 12.3 48 6.7 WNW 17 22 9 12 1017.4 1017.4 0.0
15/10:00am 23.7 21.9 13.3 52 6.0 WNW 15 22 8 12 1017.8 1017.8 0.0
15/09:30am 22.6 20.4 13.4 56 5.3 NNW 17 22 9 12 1018.0 1018.0 0.0
15/09:00am 21.5 19.6 12.9 58 4.9 NNW 15 19 8 10 1018.3 1018.3 0.0
15/08:30am 20.9 19.0 13.1 61 4.4 NNW 15 22 8 12 1018.5 1018.5 0.0
15/08:00am 19.7 18.1 13.9 69 3.3 NNW 15 19 8 10 1018.5 1018.5 0.0
15/07:30am 16.9 15.6 13.6 81 1.9 NNW 13 17 7 9 1018.5 1018.5 0.0
15/07:00am 14.7 14.2 13.9 95 0.4 N 9 13 5 7 1018.4 1018.4 0.0
15/06:30am 12.4 13.0 11.9 97 0.3 CALM 0 0 0 0 1018.4 1018.4 0.0
15/06:00am 11.3 11.6 10.8 97 0.3 CALM 0 0 0 0 1018.1 1018.1 0.0
15/05:30am 10.6 10.3 10.0 96 0.3 NNE 2 7 1 4 1017.7 1017.7 0.0
15/05:11am 11.0 10.8 10.4 96 0.3 WNW 2 7 1 4 1017.6 1017.6 0.0
15/05:00am 11.4 11.7 10.8 96 0.3 CALM 0 0 0 0 1017.7 1017.7 0.0
15/04:53am 11.5 11.8 10.9 96 0.3 CALM 0 0 0 0 1017.5 1017.5 0.0
15/04:30am 11.7 12.1 11.1 96 0.3 CALM 0 0 0 0 1017.4 1017.4 0.0
15/04:29am 11.7 12.1 11.1 96 0.3 CALM 0 0 0 0 1017.4 1017.4 0.0
15/04:13am 11.6 11.9 10.8 95 0.4 CALM 0 0 0 0 1017.3 1017.3 0.0
15/04:00am 11.2 11.0 10.3 94 0.5 W 2 7 1 4 1017.3 1017.3 0.0
15/03:53am 11.5 11.3 10.6 94 0.5 W 2 7 1 4 1017.3 1017.3 0.0
15/03:35am 12.2 12.6 11.3 94 0.5 CALM 0 0 0 0 1017.2 1017.2 0.0
15/03:30am 12.0 12.3 10.9 93 0.6 CALM 0 0 0 0 1017.2 1017.2 0.0
15/03:00am 12.5 12.8 10.9 90 0.8 CALM 0 0 0 0 1017.2 1017.2 0.0
15/02:30am 13.3 13.7 11.2 87 1.1 CALM 0 0 0 0 1017.4 1017.4 0.0
15/02:00am 14.8 15.1 12.1 84 1.5 N 2 6 1 3 1017.7 1017.7 0.0
15/01:30am 15.2 14.1 12.0 81 1.7 N 9 11 5 6 1017.8 1017.8 0.0
15/01:00am 15.7 14.7 12.3 80 1.9 N 9 13 5 7 1018.0 1018.0 0.0
15/12:30am 16.3 14.3 12.7 79 2.0 N 15 19 8 10 1018.3 1018.3 0.0
15/12:00am 16.2 14.5 12.6 79 2.0 NNE 13 17 7 9 1018.6 1018.6 0.0
 
Date/Time
EST
Temp
°C
App
Temp
°C
Dew
Point
Rel
Hum
%
Delta-T
°C
Wind Press
QNH
hPa
Press
MSL
hPa
Rain
since 9 am
mm
Dir
 
Spd
km/h
Gust
km/h
Spd
kts
Gust
kts
14/11:30pm 16.8 14.8 12.7 77 2.3 N 15 22 8 12 1018.9 1018.9 0.0
14/11:00pm 17.1 14.8 13.0 77 2.3 N 17 24 9 13 1018.9 1018.9 0.0
14/10:30pm 16.8 15.7 13.1 79 2.1 N 11 17 6 9 1019.1 1019.1 0.0
14/10:00pm 16.7 15.1 12.8 78 2.2 N 13 17 7 9 1019.2 1019.2 0.0
14/09:30pm 16.8 14.8 12.7 77 2.3 N 15 20 8 11 1019.2 1019.2 0.0
14/09:00pm 16.7 15.1 12.8 78 2.2 N 13 17 7 9 1019.3 1019.3 0.0
14/08:30pm 17.0 15.1 12.9 77 2.3 N 15 20 8 11 1019.3 1019.3 0.0
14/08:00pm 17.0 15.1 12.9 77 2.3 N 15 22 8 12 1019.3 1019.3 0.0
14/07:30pm 17.1 15.5 12.8 76 2.4 N 13 19 7 10 1019.1 1019.1 0.0
14/07:00pm 17.1 15.4 12.6 75 2.5 N 13 19 7 10 1018.9 1018.9 0.0
14/06:30pm 17.5 16.0 13.0 75 2.5 NNE 13 19 7 10 1018.7 1018.7 0.0
14/06:00pm 17.9 15.9 12.8 72 2.8 NNE 15 20 8 11 1018.6 1018.6 0.0
14/05:30pm 18.6 16.2 12.8 69 3.3 NNE 17 26 9 14 1018.7 1018.7 0.0
14/05:00pm 19.3 16.4 12.8 66 3.6 NNE 20 30 11 16 1018.7 1018.7 0.0
14/04:30pm 19.8 16.1 12.8 64 3.9 NNE 24 35 13 19 1018.6 1018.6 0.0
14/04:00pm 20.6 16.9 12.8 61 4.4 NNE 24 35 13 19 1018.8 1018.8 0.0
14/03:30pm 20.8 17.3 13.3 62 4.3 NNE 24 37 13 20 1019.0 1019.0 0.0
14/03:00pm 20.9 16.5 12.8 60 4.6 NE 28 35 15 19 1019.2 1019.2 0.0
14/02:30pm 21.2 17.2 13.1 60 4.6 NE 26 33 14 18 1019.4 1019.4 0.0
14/02:00pm 21.3 17.7 13.0 59 4.7 NE 24 33 13 18 1019.6 1019.6 0.0
14/01:30pm 21.5 18.4 14.6 65 4.0 NE 24 33 13 18 1020.0 1020.0 0.0
14/01:00pm 21.8 19.3 15.2 66 3.9 NE 22 32 12 17 1020.4 1020.4 0.0
14/12:30pm 21.3 18.4 14.0 63 4.2 ENE 22 32 12 17 1020.9 1020.9 0.0
14/12:00pm 21.7 19.2 14.1 62 4.4 NE 20 28 11 15 1021.4 1021.4 0.0
14/11:30am 21.7 18.9 14.4 63 4.3 E 22 28 12 15 1021.7 1021.7 0.0
14/11:00am 21.5 18.3 13.2 59 4.7 ENE 22 30 12 16 1022.1 1022.1 0.0
14/10:30am 22.2 20.2 13.8 59 4.9 ENE 17 22 9 12 1022.5 1022.5 0.0
14/10:00am 21.4 20.7 13.1 59 4.7 NE 9 13 5 7 1022.9 1022.9 0.0
14/09:30am 20.1 19.4 13.3 65 3.9 NNW 9 17 5 9 1023.1 1023.1 0.0
14/09:00am 19.3 20.1 13.7 70 3.2 SSW 2 7 1 4 1023.1 1023.1 0.0
14/08:30am 18.2 17.8 13.1 72 2.9 WNW 7 11 4 6 1023.4 1023.4 0.0
14/08:00am 16.9 16.7 13.0 78 2.2 WNW 6 9 3 5 1023.4 1023.4 0.0

Other Formats:

Comma delimited format used in spreadsheet applications
http://www.bom.gov.au/fwo/IDN60801/IDN60801.94596.axf

JavaScript Object Notation format (JSON) in row-major order
http://www.bom.gov.au/fwo/IDN60801/IDN60801.94596.json